createdAt,value
2018-10-03T00:00:05.449Z,638.57
2018-10-03T00:02:46.584Z,533.77
2018-10-03T00:05:29.509Z,646.70
2018-10-03T00:08:09.685Z,522.73
2018-10-03T00:10:49.243Z,562.80
2018-10-03T00:13:29.024Z,623.10
2018-10-03T00:16:07.745Z,568.97
2018-10-03T00:18:45.502Z,638.43
2018-10-03T00:21:25.727Z,603.10
2018-10-03T00:24:04.220Z,613.50
2018-10-03T00:26:47.244Z,596.23
2018-10-03T00:29:23.921Z,611.70
2018-10-03T00:32:04.744Z,605.00
2018-10-03T00:34:42.622Z,610.23
2018-10-03T00:37:22.847Z,656.83
2018-10-03T00:40:01.746Z,631.93
2018-10-03T00:42:39.941Z,683.70
2018-10-03T00:45:18.363Z,678.93
2018-10-03T00:47:56.830Z,659.90
2018-10-03T00:50:35.966Z,682.67
2018-10-03T00:53:15.482Z,674.67
2018-10-03T00:55:54.546Z,664.77
2018-10-03T00:58:32.686Z,666.23
2018-10-03T01:01:09.924Z,672.20
2018-10-03T01:03:49.926Z,654.83
2018-10-03T01:06:30.526Z,623.83
2018-10-03T01:09:09.564Z,653.03
2018-10-03T01:11:48.386Z,652.40
2018-10-03T01:14:27.009Z,649.23
2018-10-03T01:17:09.141Z,653.30
2018-10-03T01:19:49.422Z,654.67
2018-10-03T01:22:28.024Z,674.67
2018-10-03T01:25:06.586Z,661.43
2018-10-03T01:27:47.302Z,670.13
2018-10-03T01:30:24.558Z,676.50
2018-10-03T01:33:03.381Z,666.67
2018-10-03T01:35:44.206Z,656.10
2018-10-03T01:38:24.352Z,670.43
2018-10-03T01:41:06.364Z,654.53
2018-10-03T01:43:43.345Z,666.80
2018-10-03T01:46:20.804Z,665.90
2018-10-03T01:48:59.867Z,676.83
2018-10-03T01:51:38.323Z,668.50
2018-10-03T01:54:17.606Z,638.80
2018-10-03T01:56:54.580Z,653.10
2018-10-03T01:59:33.047Z,669.30
2018-10-03T02:02:11.781Z,674.77
2018-10-03T02:04:50.446Z,674.10
2018-10-03T02:07:30.343Z,665.23
2018-10-03T02:10:08.285Z,646.80
2018-10-03T02:12:48.467Z,654.83
2018-10-03T02:15:27.259Z,644.57
2018-10-03T02:18:05.238Z,654.23
2018-10-03T02:20:44.063Z,636.27
2018-10-03T02:23:22.426Z,636.23
2018-10-03T02:26:01.706Z,637.37
2018-10-03T02:28:40.400Z,624.80
2018-10-03T02:31:19.065Z,621.80
2018-10-03T02:33:58.688Z,616.13
2018-10-03T02:36:35.745Z,582.23
2018-10-03T02:39:16.843Z,533.00
2018-10-03T02:41:56.071Z,502.27
2018-10-03T02:44:33.902Z,492.80
2018-10-03T02:47:11.949Z,487.67
2018-10-03T02:49:50.563Z,462.77
2018-10-03T02:52:29.451Z,469.73
2018-10-03T02:55:08.006Z,445.73
2018-10-03T02:57:46.904Z,383.53
2018-10-03T03:00:25.064Z,334.03
2018-10-03T03:03:03.765Z,351.03
2018-10-03T03:05:43.103Z,333.27
2018-10-03T03:08:21.185Z,345.40
2018-10-03T03:11:00.051Z,280.43
2018-10-03T03:13:38.924Z,223.43
2018-10-03T03:16:16.029Z,145.77
2018-10-03T03:18:53.528Z,101.43
2018-10-03T03:21:32.244Z,76.33
2018-10-03T03:24:12.003Z,77.57
2018-10-03T03:26:51.705Z,62.17
2018-10-03T03:29:29.809Z,60.93
2018-10-03T03:32:10.246Z,60.57
2018-10-03T03:34:50.902Z,49.43
2018-10-03T03:37:29.521Z,62.07
2018-10-03T03:40:11.584Z,41.80
2018-10-03T03:42:51.909Z,40.60
2018-10-03T03:45:29.506Z,42.00
2018-10-03T03:48:07.921Z,46.27
2018-10-03T03:50:48.245Z,39.20
2018-10-03T03:53:28.200Z,32.13
2018-10-03T03:56:06.945Z,47.93
2018-10-03T03:58:45.020Z,52.63
2018-10-03T04:01:25.442Z,43.43
2018-10-03T04:04:04.049Z,40.37
2018-10-03T04:06:44.441Z,39.37
2018-10-03T04:09:25.204Z,38.97
2018-10-03T04:12:05.685Z,37.47
2018-10-03T04:14:44.463Z,36.30
2018-10-03T04:17:23.691Z,38.10
2018-10-03T04:20:03.463Z,39.60
2018-10-03T04:22:43.380Z,37.43
2018-10-03T04:25:23.883Z,44.50
2018-10-03T04:28:04.228Z,45.97
2018-10-03T04:30:43.383Z,54.43
2018-10-03T04:33:25.641Z,49.93
2018-10-03T04:36:05.101Z,47.70
2018-10-03T04:38:44.660Z,55.80
2018-10-03T04:41:23.863Z,48.43
2018-10-03T04:44:04.784Z,62.27
2018-10-03T04:46:43.546Z,54.07
2018-10-03T04:49:23.119Z,51.23
2018-10-03T04:52:03.364Z,52.13
2018-10-03T04:54:43.639Z,46.97
2018-10-03T04:57:21.764Z,46.43
2018-10-03T04:59:59.643Z,48.07
2018-10-03T05:02:39.665Z,39.20
2018-10-03T05:05:19.370Z,39.37
2018-10-03T05:07:58.842Z,41.97
2018-10-03T05:10:37.879Z,35.67
2018-10-03T05:13:16.623Z,36.20
2018-10-03T05:16:00.198Z,35.77
2018-10-03T05:18:39.826Z,39.37
2018-10-03T05:21:18.894Z,38.00
2018-10-03T05:23:59.084Z,40.33
2018-10-03T05:26:38.785Z,36.50
2018-10-03T05:29:21.366Z,36.23
2018-10-03T05:32:08.790Z,35.93
2018-10-03T05:34:53.024Z,35.47
2018-10-03T05:37:36.447Z,34.40
2018-10-03T05:40:15.964Z,35.63
2018-10-03T05:42:53.268Z,47.77
2018-10-03T05:45:32.774Z,36.23
2018-10-03T05:48:09.984Z,35.60
2018-10-03T05:50:49.187Z,36.33
2018-10-03T05:53:29.326Z,36.57
2018-10-03T05:56:09.830Z,39.50
2018-10-03T05:58:48.320Z,43.07
2018-10-03T06:01:26.927Z,36.23
2018-10-03T06:04:06.224Z,42.17
2018-10-03T06:06:45.285Z,50.60
2018-10-03T06:09:26.244Z,63.47
2018-10-03T06:12:05.947Z,45.73
2018-10-03T06:14:44.479Z,59.33
2018-10-03T06:17:25.188Z,51.23
2018-10-03T06:20:04.806Z,62.73
2018-10-03T06:22:44.104Z,68.20
2018-10-03T06:25:23.208Z,71.03
2018-10-03T06:28:02.606Z,69.00
2018-10-03T06:30:44.569Z,122.40
2018-10-03T06:33:23.602Z,84.23
2018-10-03T06:36:04.086Z,77.10
2018-10-03T06:38:43.805Z,71.87
2018-10-03T06:41:22.245Z,59.67
2018-10-03T06:43:59.183Z,49.30
2018-10-03T06:46:38.947Z,40.77
2018-10-03T06:49:18.472Z,36.30
2018-10-03T06:51:58.819Z,48.77
2018-10-03T06:54:41.141Z,37.77
2018-10-03T06:57:19.860Z,43.43
2018-10-03T06:59:58.487Z,52.40
2018-10-03T07:02:38.168Z,57.97
2018-10-03T07:05:17.782Z,41.53
2018-10-03T07:07:57.107Z,50.97
2018-10-03T07:10:34.228Z,194.70
2018-10-03T07:13:12.719Z,363.90
2018-10-03T07:15:52.426Z,465.93
2018-10-03T07:18:36.684Z,273.00
2018-10-03T07:21:20.604Z,62.57
2018-10-03T07:24:00.727Z,41.77
2018-10-03T07:26:41.266Z,44.00
2018-10-03T07:29:20.303Z,80.93
2018-10-03T07:32:00.801Z,75.73
2018-10-03T07:34:40.487Z,162.60
2018-10-03T07:37:36.944Z,225.77
2018-10-03T07:40:17.404Z,276.07
2018-10-03T07:43:01.641Z,285.23
2018-10-03T07:45:43.344Z,236.23
2018-10-03T07:48:22.723Z,74.57
2018-10-03T07:51:03.166Z,97.20
2018-10-03T07:53:43.824Z,68.00
2018-10-03T07:56:25.865Z,101.83
2018-10-03T07:59:04.895Z,276.83
2018-10-03T08:01:42.383Z,294.77
2018-10-03T08:04:23.641Z,369.77
2018-10-03T08:07:01.627Z,315.43
2018-10-03T08:09:41.904Z,299.30
2018-10-03T08:12:19.501Z,241.20
2018-10-03T08:14:56.525Z,82.30
2018-10-03T08:17:34.842Z,52.43
2018-10-03T08:20:13.084Z,57.47
2018-10-03T08:22:50.540Z,38.70
2018-10-03T08:25:27.885Z,104.37
2018-10-03T08:28:04.968Z,131.10
2018-10-03T08:30:44.751Z,45.63
2018-10-03T08:33:22.061Z,69.10
2018-10-03T08:36:09.626Z,54.70
2018-10-03T08:38:49.917Z,84.27
2018-10-03T08:41:31.202Z,62.43
2018-10-03T08:44:08.448Z,47.77
2018-10-03T08:46:45.641Z,36.43
2018-10-03T08:49:24.583Z,273.17
2018-10-03T08:52:05.363Z,388.60
2018-10-03T08:54:44.387Z,97.50
2018-10-03T08:57:23.686Z,295.33
2018-10-03T09:00:02.687Z,393.17
2018-10-03T09:02:42.002Z,92.50
2018-10-03T09:05:22.011Z,98.23
2018-10-03T09:08:15.772Z,29.27
2018-10-03T09:10:54.308Z,26.53
2018-10-03T09:13:33.922Z,37.17
2018-10-03T09:16:14.926Z,97.17
2018-10-03T09:18:54.656Z,483.27
2018-10-03T09:21:34.224Z,618.07
2018-10-03T09:24:13.004Z,130.53
2018-10-03T09:26:52.861Z,31.70
2018-10-03T09:29:34.187Z,41.90
2018-10-03T09:32:16.071Z,42.10
2018-10-03T09:34:54.565Z,49.57
2018-10-03T09:37:33.669Z,112.73
2018-10-03T09:40:14.005Z,30.33
2018-10-03T09:42:51.650Z,221.70
2018-10-03T09:45:32.183Z,144.77
2018-10-03T09:48:13.941Z,234.83
2018-10-03T09:50:51.364Z,129.03
2018-10-03T09:53:29.582Z,153.70
2018-10-03T09:56:10.248Z,76.93
2018-10-03T09:58:49.341Z,27.40
2018-10-03T10:01:36.346Z,229.80
2018-10-03T10:04:13.967Z,96.83
2018-10-03T10:06:52.746Z,30.53
2018-10-03T10:09:34.003Z,31.00
2018-10-03T10:12:14.724Z,75.07
2018-10-03T10:14:55.725Z,43.23
2018-10-03T10:17:36.029Z,156.00
2018-10-03T10:20:15.233Z,295.80
2018-10-03T10:22:52.708Z,23.27
2018-10-03T10:25:31.940Z,27.53
2018-10-03T10:28:16.165Z,86.60
2018-10-03T10:30:56.780Z,213.40
2018-10-03T10:33:38.681Z,49.83
2018-10-03T10:36:17.706Z,35.37
2018-10-03T10:38:59.089Z,74.93
2018-10-03T10:41:40.455Z,93.50
2018-10-03T10:44:19.160Z,63.73
2018-10-03T10:47:02.046Z,55.13
2018-10-03T10:49:40.682Z,34.33
2018-10-03T10:52:20.362Z,33.43
2018-10-03T10:55:00.588Z,31.33
2018-10-03T10:57:39.106Z,28.70
2018-10-03T11:00:17.030Z,31.23
2018-10-03T11:02:54.260Z,28.90
2018-10-03T11:05:35.127Z,29.80
2018-10-03T11:08:15.501Z,36.50
2018-10-03T11:10:54.764Z,34.93
2018-10-03T11:13:31.445Z,60.30
2018-10-03T11:16:10.848Z,36.47
2018-10-03T11:18:47.809Z,49.47
2018-10-03T11:21:28.723Z,64.60
2018-10-03T11:24:08.670Z,45.23
2018-10-03T11:26:49.089Z,43.83
2018-10-03T11:29:30.205Z,41.30
2018-10-03T11:32:10.034Z,44.23
2018-10-03T11:34:48.809Z,73.53
2018-10-03T11:37:30.385Z,58.50
2018-10-03T11:40:10.278Z,45.83
2018-10-03T11:42:49.527Z,41.47
2018-10-03T11:45:27.901Z,51.53
2018-10-03T11:48:08.886Z,70.27
2018-10-03T11:50:49.880Z,64.27
2018-10-03T11:53:30.184Z,72.83
2018-10-03T11:56:09.626Z,71.07
2018-10-03T11:58:49.009Z,104.17
2018-10-03T12:01:27.052Z,88.97
2018-10-03T12:04:05.750Z,90.30
2018-10-03T12:06:48.489Z,62.97
2018-10-03T12:09:28.524Z,59.73
2018-10-03T12:12:06.864Z,55.57
2018-10-03T12:14:47.167Z,127.83
2018-10-03T12:17:28.863Z,56.30
2018-10-03T12:20:12.542Z,54.60
2018-10-03T12:22:55.443Z,40.83
2018-10-03T12:25:34.503Z,34.80
2018-10-03T12:28:15.323Z,29.57
2018-10-03T12:30:55.607Z,33.90
2018-10-03T12:33:37.924Z,85.93
2018-10-03T12:36:19.344Z,131.47
2018-10-03T12:38:58.339Z,140.77
2018-10-03T12:41:40.030Z,143.87
2018-10-03T12:44:21.541Z,98.63
2018-10-03T12:47:03.563Z,63.60
2018-10-03T12:49:41.984Z,113.63
2018-10-03T12:52:18.882Z,56.33
2018-10-03T12:55:00.921Z,52.87
2018-10-03T12:57:40.637Z,51.87
2018-10-03T13:00:24.722Z,22.40
2018-10-03T13:03:08.044Z,21.33
2018-10-03T13:05:50.346Z,18.13
2018-10-03T13:08:30.025Z,22.40
2018-10-03T13:11:11.959Z,17.90
2018-10-03T13:13:50.225Z,23.93
2018-10-03T13:16:34.219Z,19.57
2018-10-03T13:19:13.463Z,19.63
2018-10-03T13:21:54.050Z,20.53
2018-10-03T13:24:34.555Z,17.47
2018-10-03T13:27:14.000Z,17.50
2018-10-03T13:29:53.603Z,19.07
2018-10-03T13:32:31.564Z,18.93
2018-10-03T13:35:10.925Z,18.73
2018-10-03T13:37:50.231Z,18.77
2018-10-03T13:40:30.827Z,18.10
2018-10-03T13:43:11.930Z,18.13
2018-10-03T13:45:54.725Z,17.50
2018-10-03T13:48:32.962Z,17.73
2018-10-03T13:51:13.890Z,17.77
2018-10-03T13:53:53.539Z,18.93
2018-10-03T13:56:33.144Z,18.27
2018-10-03T13:59:14.542Z,18.47
2018-10-03T14:01:55.655Z,19.23
2018-10-03T14:04:35.115Z,18.90
2018-10-03T14:07:16.608Z,18.23
2018-10-03T14:09:57.885Z,18.83
2018-10-03T14:12:37.851Z,19.83
2018-10-03T14:15:25.723Z,23.00
2018-10-03T14:18:04.981Z,35.87
2018-10-03T14:20:45.590Z,28.13
2018-10-03T14:23:27.183Z,39.10
2018-10-03T14:26:05.300Z,64.17
2018-10-03T14:28:44.286Z,65.23
2018-10-03T14:31:25.184Z,43.20
2018-10-03T14:34:02.206Z,48.70
2018-10-03T14:36:45.740Z,41.60
2018-10-03T14:39:25.045Z,33.63
2018-10-03T14:42:06.088Z,31.23
2018-10-03T14:44:44.885Z,28.13
2018-10-03T14:47:24.466Z,29.40
2018-10-03T14:50:05.509Z,23.10
2018-10-03T14:52:45.672Z,26.60
2018-10-03T14:55:27.245Z,24.20
2018-10-03T14:58:07.187Z,61.77
2018-10-03T15:00:47.303Z,105.07
2018-10-03T15:03:33.019Z,100.27
2018-10-03T15:06:10.046Z,70.90
2018-10-03T15:08:48.752Z,47.77
2018-10-03T15:11:29.545Z,60.93
2018-10-03T15:14:09.263Z,38.93
2018-10-03T15:16:49.070Z,27.50
2018-10-03T15:19:28.445Z,27.63
2018-10-03T15:22:09.380Z,24.53
2018-10-03T15:24:49.145Z,25.50
2018-10-03T15:27:26.945Z,63.50
2018-10-03T15:30:06.730Z,41.80
2018-10-03T15:32:47.664Z,47.80
2018-10-03T15:35:26.299Z,57.90
2018-10-03T15:38:05.923Z,92.83
2018-10-03T15:40:47.153Z,92.70
2018-10-03T15:43:27.208Z,76.67
2018-10-03T15:46:06.726Z,109.73
2018-10-03T15:48:45.805Z,134.77
2018-10-03T15:51:23.104Z,137.37
2018-10-03T15:54:02.300Z,140.00
2018-10-03T15:56:44.645Z,177.73
2018-10-03T15:59:23.205Z,212.07
2018-10-03T16:02:02.765Z,202.63
2018-10-03T16:04:43.602Z,201.17
2018-10-03T16:07:23.143Z,210.57
2018-10-03T16:10:03.126Z,192.33
2018-10-03T16:12:48.860Z,205.67
2018-10-03T16:15:28.580Z,202.77
2018-10-03T16:18:11.639Z,168.90
2018-10-03T16:20:50.304Z,169.57
2018-10-03T16:23:30.769Z,134.67
2018-10-03T16:26:10.932Z,361.02
2018-10-03T16:28:49.382Z,288.87
2018-10-03T16:31:26.579Z,234.83
2018-10-03T16:34:04.204Z,223.53
2018-10-03T16:36:43.907Z,220.27
2018-10-03T16:39:26.704Z,237.40
2018-10-03T16:42:08.290Z,246.77
2018-10-03T16:44:48.104Z,235.03
2018-10-03T16:47:24.924Z,247.13
2018-10-03T16:50:03.599Z,272.97
2018-10-03T16:52:45.591Z,295.80
2018-10-03T16:55:24.162Z,226.27
2018-10-03T16:58:03.424Z,206.13
2018-10-03T17:00:44.799Z,246.37
2018-10-03T17:03:24.702Z,246.63
2018-10-03T17:06:05.645Z,238.10
2018-10-03T17:08:45.540Z,240.27
2018-10-03T17:11:27.288Z,192.13
2018-10-03T17:14:20.042Z,170.50
2018-10-03T17:17:00.467Z,150.23
2018-10-03T17:19:42.344Z,130.23
2018-10-03T17:22:24.104Z,119.83
2018-10-03T17:25:02.061Z,103.37
2018-10-03T17:27:44.933Z,82.03
2018-10-03T17:30:24.755Z,45.30
2018-10-03T17:33:07.703Z,32.97
2018-10-03T17:35:47.986Z,25.50
2018-10-03T17:38:30.323Z,22.63
2018-10-03T17:41:10.605Z,24.13
2018-10-03T17:43:47.223Z,21.67
2018-10-03T17:46:27.105Z,22.33
2018-10-03T17:49:06.239Z,23.40
2018-10-03T17:51:43.204Z,23.47
2018-10-03T17:54:21.903Z,25.17
2018-10-03T17:57:02.162Z,24.40
2018-10-03T17:59:41.299Z,23.57
2018-10-03T18:02:24.923Z,24.97
2018-10-03T18:05:02.395Z,25.90
2018-10-03T18:07:41.390Z,31.23
2018-10-03T18:10:20.990Z,36.97
2018-10-03T18:12:58.380Z,52.17
2018-10-03T18:15:39.262Z,81.27
2018-10-03T18:18:19.485Z,143.47
2018-10-03T18:20:56.280Z,177.33
2018-10-03T18:23:35.660Z,185.30
2018-10-03T18:26:14.870Z,224.17
2018-10-03T18:28:55.447Z,270.70
2018-10-03T18:31:32.482Z,287.03
2018-10-03T18:34:12.586Z,330.27
2018-10-03T18:36:49.009Z,342.70
2018-10-03T18:39:28.685Z,406.50
2018-10-03T18:42:07.789Z,402.07
2018-10-03T18:44:47.826Z,385.97
2018-10-03T18:47:28.784Z,409.27
2018-10-03T18:50:09.230Z,347.67
2018-10-03T18:52:47.769Z,296.57
2018-10-03T18:55:27.867Z,242.63
2018-10-03T18:58:07.884Z,113.73
2018-10-03T19:00:47.489Z,69.20
2018-10-03T19:03:26.686Z,48.97
2018-10-03T19:06:07.606Z,37.90
2018-10-03T19:08:47.090Z,31.03
2018-10-03T19:11:27.125Z,32.47
2018-10-03T19:14:06.182Z,42.07
2018-10-03T19:16:44.061Z,51.77
2018-10-03T19:19:21.619Z,63.67
2018-10-03T19:22:02.182Z,73.93
2018-10-03T19:24:45.668Z,99.03
2018-10-03T19:27:26.780Z,102.87
2018-10-03T19:30:08.206Z,116.53
2018-10-03T19:32:49.282Z,114.90
2018-10-03T19:35:37.085Z,134.27
2018-10-03T19:38:14.704Z,141.80
2018-10-03T19:40:52.604Z,160.87
2018-10-03T19:43:32.285Z,160.17
2018-10-03T19:46:15.765Z,163.43
2018-10-03T19:48:55.077Z,161.17
2018-10-03T19:51:33.828Z,135.00
2018-10-03T19:54:12.043Z,141.93
2018-10-03T19:56:50.968Z,169.03
2018-10-03T19:59:29.883Z,154.90
2018-10-03T20:02:09.488Z,161.23
2018-10-03T20:04:48.108Z,163.60
2018-10-03T20:07:27.007Z,186.00
2018-10-03T20:10:08.003Z,148.53
2018-10-03T20:12:44.187Z,140.43
2018-10-03T20:15:22.684Z,132.03
2018-10-03T20:18:01.267Z,158.43
2018-10-03T20:20:39.482Z,134.20
2018-10-03T20:23:18.508Z,149.60
2018-10-03T20:25:56.263Z,132.00
2018-10-03T20:28:35.648Z,126.70
2018-10-03T20:31:14.393Z,126.27
2018-10-03T20:33:55.268Z,151.90
2018-10-03T20:36:32.646Z,147.43
2018-10-03T20:39:13.266Z,167.87
2018-10-03T20:41:53.437Z,165.30
2018-10-03T20:44:34.791Z,207.63
2018-10-03T20:47:15.508Z,222.93
2018-10-03T20:49:55.728Z,275.30
2018-10-03T20:52:33.981Z,322.87
2018-10-03T20:55:12.323Z,268.80
2018-10-03T20:57:52.011Z,264.63
2018-10-03T21:00:33.265Z,245.83
2018-10-03T21:03:13.340Z,235.67
2018-10-03T21:05:50.108Z,293.87
2018-10-03T21:08:29.826Z,197.77
2018-10-03T21:11:08.882Z,188.60
2018-10-03T21:13:48.007Z,180.37
2018-10-03T21:16:28.242Z,187.03
2018-10-03T21:19:07.344Z,186.10
2018-10-03T21:22:01.606Z,230.10
2018-10-03T21:24:42.983Z,194.33
2018-10-03T21:27:22.151Z,233.43
2018-10-03T21:30:01.730Z,237.53
2018-10-03T21:32:42.305Z,258.30
2018-10-03T21:35:21.645Z,220.47
2018-10-03T21:38:00.404Z,227.13
2018-10-03T21:40:40.024Z,343.30
2018-10-03T21:43:22.319Z,363.37
2018-10-03T21:45:58.903Z,403.10
2018-10-03T21:48:38.905Z,387.90
2018-10-03T21:51:17.544Z,337.70
2018-10-03T21:53:54.483Z,354.90
2018-10-03T21:56:33.960Z,295.60
2018-10-03T21:59:11.781Z,243.63
2018-10-03T22:01:48.590Z,197.57
2018-10-03T22:04:27.202Z,207.03
2018-10-03T22:07:06.565Z,256.93
2018-10-03T22:09:46.523Z,318.60
2018-10-03T22:12:25.208Z,276.00
2018-10-03T22:15:02.545Z,298.03
2018-10-03T22:17:43.421Z,325.43
2018-10-03T22:20:23.846Z,337.13
2018-10-03T22:23:02.964Z,265.10
2018-10-03T22:25:41.902Z,254.60
2018-10-03T22:28:21.304Z,230.63
2018-10-03T22:30:59.748Z,210.47
2018-10-03T22:33:38.447Z,184.83
2018-10-03T22:36:16.808Z,176.80
2018-10-03T22:38:55.849Z,110.03
2018-10-03T22:41:36.024Z,125.23
2018-10-03T22:44:14.763Z,114.13
2018-10-03T22:46:52.950Z,121.97
2018-10-03T22:49:31.705Z,89.63
2018-10-03T22:52:09.964Z,77.83
2018-10-03T22:54:46.622Z,55.23
2018-10-03T22:57:26.602Z,44.27
2018-10-03T23:00:05.926Z,44.60
2018-10-03T23:02:44.344Z,40.13
2018-10-03T23:05:22.407Z,38.33
2018-10-03T23:08:00.561Z,34.90
2018-10-03T23:10:40.145Z,34.37
2018-10-03T23:13:18.846Z,34.00
2018-10-03T23:15:56.045Z,36.83
2018-10-03T23:18:34.338Z,37.67
2018-10-03T23:21:16.029Z,37.97
2018-10-03T23:23:54.742Z,45.67
2018-10-03T23:26:33.621Z,43.43
2018-10-03T23:29:13.067Z,47.80
2018-10-03T23:31:51.683Z,56.77
2018-10-03T23:34:30.068Z,58.73
2018-10-03T23:37:07.226Z,55.40
2018-10-03T23:39:43.999Z,55.73
2018-10-03T23:42:22.468Z,67.77
2018-10-03T23:44:59.926Z,86.97
2018-10-03T23:47:36.888Z,77.67
2018-10-03T23:50:16.321Z,73.30
2018-10-03T23:53:10.004Z,85.37
2018-10-03T23:55:48.444Z,67.13
2018-10-03T23:58:26.765Z,68.57
